Jarrettown, Pennsylvania
Current Conditions -  °F | °C
As of 6:55 AM on Friday 24 Oct 2014 (Local Time) from KLOM Reporting Station
Overcast Overcast  
Wind Chill: 55°   Ceiling: 3200
Heat Index: 55°   Visibility: 10mi
Dew Point: 45°   Wind: 6mph
Humidity: 67%   Direction: 310°NW
Pressure: 29.84"   Gusts: NA
Location:  40.1441°N, 75.1618°W
Report Text: KLOM 241055Z AUTO 31005KT 10SM OVC032 13/07 A2984 RMK AO1
Loading
Personal Weather Stations






























Interactive Weather Map
Tropical Storm Tracking
New forecast layout! Learn more

10-Day Weather Forecast

Advertisements
Track Severe Weather on mobile